Time;durP1;ratioP1;P1;durP2;ratioP2;P2;SDS_P1;SDS_P2;PMS_P1;PMS_P2;Temp;Humidity;BMP_temperature;BMP_pressure;BME280_temperature;BME280_humidity;BME280_pressure;Samples;Min_cycle;Max_cycle;Signal;HPM_P1;HPM_P2
2024/03/30 00:07:31;;;;;;;68.10;7.57;;;6.60;99.90;;;;;;20507211;28;20098;-40
2024/03/30 00:17:33;;;;;;;70.63;6.97;;;6.90;99.90;;;;;;20491194;29;20086;-39
2024/03/30 00:27:34;;;;;;;48.38;7.20;;;7.10;99.90;;;;;;20507228;29;20363;-40
2024/03/30 00:37:36;;;;;;;53.33;7.22;;;7.10;99.90;;;;;;20463537;29;20085;-40
2024/03/30 00:47:41;;;;;;;52.28;5.68;;;7.00;99.90;;;;;;20424752;29;20054;-39
2024/03/30 00:57:43;;;;;;;64.85;6.80;;;6.80;99.90;;;;;;20471258;29;20047;-40
2024/03/30 01:07:45;;;;;;;52.22;6.20;;;6.40;99.90;;;;;;20434322;29;20098;-40
2024/03/30 01:17:47;;;;;;;59.78;6.13;;;5.90;99.90;;;;;;20485699;28;20102;-40
2024/03/30 01:27:50;;;;;;;53.47;6.18;;;5.70;99.90;;;;;;20485064;28;20051;-41
2024/03/30 01:37:52;;;;;;;81.93;7.60;;;5.60;99.90;;;;;;20470130;29;20040;-40
2024/03/30 01:47:54;;;;;;;72.20;6.72;;;6.40;99.90;;;;;;20483797;29;20039;-42
2024/03/30 01:57:59;;;;;;;59.72;5.68;;;7.00;99.90;;;;;;20488573;29;20031;-40
2024/03/30 02:08:03;;;;;;;51.78;6.20;;;7.30;99.90;;;;;;20500239;29;20027;-40
2024/03/30 02:18:05;;;;;;;63.53;7.72;;;6.70;99.90;;;;;;20436985;29;20031;-40
2024/03/30 02:28:08;;;;;;;61.58;7.45;;;6.30;99.90;;;;;;20472138;28;20118;-40
2024/03/30 02:38:10;;;;;;;76.38;6.75;;;6.10;99.90;;;;;;20512339;28;20043;-40
2024/03/30 02:48:11;;;;;;;56.50;6.57;;;5.80;99.90;;;;;;20457787;29;20062;-40
2024/03/30 02:58:13;;;;;;;59.88;6.75;;;5.60;99.90;;;;;;20504932;29;20479;-40
2024/03/30 03:08:15;;;;;;;57.50;7.78;;;5.50;99.90;;;;;;20513094;29;20058;-40
2024/03/30 03:18:17;;;;;;;58.65;7.30;;;5.70;99.90;;;;;;20495380;29;20581;-40
2024/03/30 03:28:19;;;;;;;65.20;6.40;;;5.90;99.90;;;;;;20511364;29;20039;-40
2024/03/30 03:38:21;;;;;;;59.28;6.13;;;6.60;99.90;;;;;;20479279;29;20039;-43
2024/03/30 03:48:23;;;;;;;85.72;7.68;;;6.30;99.90;;;;;;20483731;28;20031;-40
2024/03/30 03:58:25;;;;;;;68.20;8.30;;;6.40;99.90;;;;;;20501816;29;20066;-40
2024/03/30 04:08:27;;;;;;;87.90;9.60;;;6.50;99.90;;;;;;20508470;29;20504;-42
2024/03/30 04:18:29;;;;;;;70.53;8.18;;;6.50;99.90;;;;;;20340957;29;20484;-43
2024/03/30 04:28:35;;;;;;;98.13;9.88;;;6.40;99.90;;;;;;20339969;29;20052;-41
2024/03/30 04:38:36;;;;;;;83.18;8.98;;;6.50;99.90;;;;;;20323436;29;20107;-40
2024/03/30 04:48:39;;;;;;;86.18;8.25;;;6.40;99.90;;;;;;20411188;29;20094;-40
2024/03/30 04:58:40;;;;;;;80.00;7.68;;;6.10;99.90;;;;;;20499447;28;20376;-41
2024/03/30 05:08:42;;;;;;;101.78;9.75;;;6.00;99.90;;;;;;20504290;29;20035;-40
2024/03/30 05:18:44;;;;;;;88.07;8.55;;;6.10;99.90;;;;;;20503566;29;20054;-39
2024/03/30 05:28:46;;;;;;;80.07;8.98;;;6.20;99.90;;;;;;20502348;29;20039;-42
2024/03/30 05:38:48;;;;;;;93.78;9.32;;;6.30;99.90;;;;;;20470064;29;20368;-40
2024/03/30 05:48:52;;;;;;;87.78;9.45;;;6.70;99.90;;;;;;20476464;29;20035;-39
2024/03/30 05:58:54;;;;;;;80.93;9.00;;;6.80;99.90;;;;;;20415558;29;20036;-40
2024/03/30 06:08:57;;;;;;;93.32;10.20;;;7.10;99.90;;;;;;20420649;29;20476;-41
2024/03/30 06:18:59;;;;;;;91.68;10.48;;;7.20;99.90;;;;;;20417648;29;20032;-42
2024/03/30 06:29:01;;;;;;;104.18;9.50;;;7.40;99.90;;;;;;20485157;29;20039;-41
2024/03/30 06:39:02;;;;;;;95.57;10.45;;;7.60;99.90;;;;;;20495862;29;20043;-40
2024/03/30 06:49:04;;;;;;;101.40;9.85;;;8.10;99.90;;;;;;20430314;29;20036;-40
2024/03/30 06:59:06;;;;;;;89.90;10.65;;;8.40;99.90;;;;;;20490343;29;20031;-41
2024/03/30 07:09:11;;;;;;;94.65;10.23;;;8.70;99.90;;;;;;20478274;29;20086;-40
2024/03/30 07:19:13;;;;;;;96.60;10.63;;;9.20;99.90;;;;;;20502602;28;20549;-43
2024/03/30 07:29:15;;;;;;;53.72;7.07;;;9.50;99.90;;;;;;20511603;29;20039;-41
2024/03/30 07:39:17;;;;;;;77.18;9.10;;;9.80;99.90;;;;;;20469276;29;20031;-41
2024/03/30 07:49:21;;;;;;;90.75;9.13;;;10.10;99.90;;;;;;20454504;29;20542;-42
2024/03/30 07:59:23;;;;;;;74.45;9.05;;;10.40;99.90;;;;;;20428351;29;20036;-41
2024/03/30 08:09:25;;;;;;;87.68;9.43;;;10.60;99.90;;;;;;20428443;29;20032;-41
2024/03/30 08:19:27;;;;;;;86.00;10.40;;;10.80;99.90;;;;;;20428036;29;20067;-45
2024/03/30 08:29:29;;;;;;;94.15;9.43;;;10.80;99.90;;;;;;20506459;28;20047;-44
2024/03/30 08:39:30;;;;;;;91.63;10.52;;;10.90;99.90;;;;;;20444343;29;20044;-40
2024/03/30 08:49:32;;;;;;;71.38;8.77;;;10.80;99.90;;;;;;20412244;29;20032;-41
2024/03/30 08:59:34;;;;;;;65.25;7.72;;;11.00;99.90;;;;;;20424027;29;20032;-45
2024/03/30 09:09:37;;;;;;;49.90;7.50;;;11.20;99.90;;;;;;20466077;29;20039;-44
2024/03/30 09:19:38;;;;;;;87.22;9.35;;;11.50;99.90;;;;;;20444284;29;20035;-43
2024/03/30 09:29:40;;;;;;;73.88;8.77;;;11.70;99.90;;;;;;20491130;29;20557;-43
2024/03/30 09:39:43;;;;;;;95.95;9.90;;;12.00;99.90;;;;;;20477808;28;20419;-43
2024/03/30 09:49:47;;;;;;;98.50;10.13;;;12.40;99.60;;;;;;20501032;29;20019;-42
2024/03/30 09:59:50;;;;;;;98.07;10.70;;;12.80;95.70;;;;;;20500860;29;20039;-42
2024/03/30 10:09:59;;;;;;;66.25;8.02;;;13.10;96.00;;;;;;20500183;29;20031;-44
2024/03/30 10:20:02;;;;;;;100.38;9.80;;;13.50;95.30;;;;;;20488283;29;20364;-43
2024/03/30 10:30:06;;;;;;;91.43;10.32;;;14.40;95.90;;;;;;20453390;28;20114;-44
2024/03/30 10:40:10;;;;;;;80.07;9.18;;;14.50;93.60;;;;;;20461207;29;20047;-45
2024/03/30 10:50:13;;;;;;;92.70;9.77;;;14.20;94.60;;;;;;20415117;28;20078;-44
2024/03/30 11:00:15;;;;;;;83.07;8.57;;;13.90;92.10;;;;;;20496560;29;20554;-42
2024/03/30 11:10:17;;;;;;;69.25;7.38;;;13.40;93.70;;;;;;20465964;29;20092;-41
2024/03/30 11:20:22;;;;;;;81.05;8.32;;;12.90;95.60;;;;;;20475376;29;20055;-42
2024/03/30 11:30:45;;;;;;;76.10;7.53;;;12.60;93.50;;;;;;20425679;29;20099;-46
2024/03/30 11:41:01;;;;;;;59.70;6.50;;;12.50;94.30;;;;;;20477076;29;20106;-45
2024/03/30 11:51:18;;;;;;;47.50;6.40;;;13.10;96.30;;;;;;20476321;29;20027;-44
2024/03/30 12:01:20;;;;;;;68.45;6.32;;;13.60;93.60;;;;;;20494296;29;20042;-42
2024/03/30 12:11:21;;;;;;;50.05;6.00;;;13.60;94.50;;;;;;20477996;29;20047;-42
2024/03/30 12:21:24;;;;;;;78.83;7.33;;;13.50;94.40;;;;;;20452974;29;1333957;-44
2024/03/30 12:31:31;;;;;;;85.60;8.70;;;13.60;91.90;;;;;;20495810;29;20032;-45
2024/03/30 12:41:37;;;;;;;84.60;8.20;;;13.60;92.30;;;;;;20439295;29;20027;-43
2024/03/30 12:51:38;;;;;;;59.20;7.38;;;13.80;94.40;;;;;;20500444;29;20070;-42
2024/03/30 13:01:40;;;;;;;49.30;6.15;;;13.80;93.50;;;;;;20503421;29;20039;-43
2024/03/30 13:11:42;;;;;;;61.40;6.55;;;13.70;94.60;;;;;;20491266;29;20075;-41
2024/03/30 13:21:44;;;;;;;60.45;7.22;;;13.80;94.10;;;;;;20441794;29;20062;-42
2024/03/30 13:31:47;;;;;;;61.38;6.40;;;13.50;96.20;;;;;;20502838;29;20040;-44
2024/03/30 13:41:49;;;;;;;61.05;7.03;;;13.30;95.00;;;;;;20493077;29;20032;-43
2024/03/30 13:51:51;;;;;;;64.90;7.68;;;13.30;97.00;;;;;;20463164;29;20119;-41
2024/03/30 14:01:52;;;;;;;72.57;6.95;;;13.20;94.60;;;;;;20482741;29;20372;-42
2024/03/30 14:11:54;;;;;;;55.63;6.43;;;13.20;95.30;;;;;;20480208;29;20039;-41
2024/03/30 14:21:56;;;;;;;61.67;7.57;;;13.70;96.50;;;;;;20499444;29;20079;-42
2024/03/30 14:31:59;;;;;;;59.30;6.22;;;13.80;93.70;;;;;;20480849;28;20035;-43
2024/03/30 14:42:01;;;;;;;65.45;7.45;;;13.60;93.40;;;;;;20461961;29;20035;-42
2024/03/30 14:52:03;;;;;;;65.72;7.43;;;12.30;96.80;;;;;;20494137;29;20082;-40
2024/03/30 15:02:05;;;;;;;57.83;6.90;;;10.80;98.10;;;;;;20473128;29;20036;-40
2024/03/30 15:12:07;;;;;;;53.47;5.88;;;10.40;99.30;;;;;;20447525;29;20036;-40
2024/03/30 15:22:08;;;;;;;67.15;7.32;;;10.30;99.90;;;;;;20469918;29;20043;-40
2024/03/30 15:32:31;;;;;;;64.82;6.10;;;10.40;99.90;;;;;;20452180;29;20035;-40
2024/03/30 15:42:32;;;;;;;61.10;6.88;;;10.30;98.80;;;;;;20499135;28;20094;-40
2024/03/30 15:52:34;;;;;;;63.55;7.32;;;10.20;98.60;;;;;;20481185;29;20043;-41
2024/03/30 16:02:37;;;;;;;59.65;6.43;;;10.20;98.80;;;;;;20437344;29;20035;-40
2024/03/30 16:12:39;;;;;;;57.92;5.95;;;10.00;99.90;;;;;;20490990;29;20372;-41
2024/03/30 16:22:41;;;;;;;73.60;6.88;;;9.80;99.90;;;;;;20482143;29;20488;-40
2024/03/30 16:32:43;;;;;;;57.85;6.15;;;9.70;99.90;;;;;;20427003;29;20032;-41
2024/03/30 16:42:44;;;;;;;46.38;5.75;;;9.60;99.90;;;;;;20493936;29;20035;-41
2024/03/30 16:52:47;;;;;;;46.55;5.55;;;9.70;99.90;;;;;;20476635;29;20034;-40
2024/03/30 17:02:49;;;;;;;56.03;5.63;;;9.70;99.90;;;;;;20506336;29;20070;-40
2024/03/30 17:12:50;;;;;;;57.03;6.15;;;9.60;99.90;;;;;;20483587;29;20036;-40
2024/03/30 17:22:52;;;;;;;45.05;6.18;;;9.60;99.90;;;;;;20451959;29;20114;-39
2024/03/30 17:32:54;;;;;;;51.78;6.32;;;9.50;99.90;;;;;;20484284;29;20039;-40
2024/03/30 17:42:56;;;;;;;57.95;5.75;;;9.20;99.90;;;;;;20486683;29;20027;-40
2024/03/30 17:52:58;;;;;;;45.78;5.32;;;9.00;99.90;;;;;;20450535;29;20046;-41
2024/03/30 18:03:00;;;;;;;50.72;5.20;;;8.70;99.90;;;;;;20500158;29;20042;-40
2024/03/30 18:13:02;;;;;;;52.92;5.93;;;8.70;99.90;;;;;;20498911;29;20039;-40
2024/03/30 18:23:04;;;;;;;54.88;5.18;;;8.60;99.90;;;;;;20499523;29;20554;-40
2024/03/30 18:33:06;;;;;;;44.42;5.88;;;8.80;99.90;;;;;;20492489;29;20035;-41
2024/03/30 18:43:10;;;;;;;54.22;5.95;;;8.30;99.90;;;;;;20472308;29;20031;-41
2024/03/30 18:53:12;;;;;;;46.05;4.70;;;8.00;99.90;;;;;;20452220;29;20040;-40
2024/03/30 19:03:13;;;;;;;47.17;5.82;;;8.20;99.90;;;;;;20498439;29;20106;-44
2024/03/30 19:13:16;;;;;;;37.60;4.80;;;8.50;99.90;;;;;;20475768;29;20028;-43
2024/03/30 19:23:20;;;;;;;48.58;4.82;;;8.80;99.90;;;;;;20464579;29;20075;-41
2024/03/30 19:33:22;;;;;;;42.30;4.43;;;8.90;99.90;;;;;;20511920;29;20043;-42
2024/03/30 19:43:24;;;;;;;47.20;4.75;;;9.10;99.90;;;;;;20492206;29;20443;-41
2024/03/30 19:53:28;;;;;;;37.50;3.95;;;8.90;99.90;;;;;;20446563;29;20031;-41
2024/03/30 20:03:29;;;;;;;43.42;5.20;;;8.20;99.90;;;;;;20484475;29;20115;-40
2024/03/30 20:13:31;;;;;;;41.08;4.60;;;8.40;99.90;;;;;;20485203;29;20094;-40
2024/03/30 20:23:33;;;;;;;39.53;4.35;;;8.30;99.90;;;;;;20507085;28;20043;-41
2024/03/30 20:33:38;;;;;;;35.78;4.60;;;8.70;99.90;;;;;;20496870;29;20040;-43
2024/03/30 20:43:41;;;;;;;38.83;4.75;;;8.90;99.90;;;;;;20500864;29;20094;-41
2024/03/30 20:53:45;;;;;;;39.72;4.82;;;8.80;99.90;;;;;;20308463;29;20060;-41
2024/03/30 21:03:47;;;;;;;41.97;5.63;;;8.80;99.90;;;;;;20337668;29;20127;-40
2024/03/30 21:13:49;;;;;;;51.92;5.30;;;8.80;99.90;;;;;;20336874;29;20080;-41
2024/03/30 21:23:50;;;;;;;41.35;4.88;;;9.10;99.90;;;;;;20344628;29;20051;-41
2024/03/30 21:33:52;;;;;;;39.47;4.28;;;9.00;99.90;;;;;;20502861;29;20031;-41
2024/03/30 21:43:54;;;;;;;29.35;3.55;;;8.60;99.90;;;;;;20478601;28;20039;-42
2024/03/30 21:53:56;;;;;;;46.05;5.55;;;8.70;99.90;;;;;;20457851;29;20039;-41
2024/03/30 22:03:58;;;;;;;34.97;3.63;;;8.60;99.90;;;;;;20500899;29;20348;-40
2024/03/30 22:14:00;;;;;;;47.45;4.70;;;8.70;99.90;;;;;;20500068;29;20027;-41
2024/03/30 22:24:05;;;;;;;40.08;6.05;;;8.70;99.90;;;;;;20499931;29;20115;-41
2024/03/30 22:34:07;;;;;;;52.83;5.47;;;8.70;99.90;;;;;;20484669;29;20491;-41
2024/03/30 22:44:09;;;;;;;46.40;4.97;;;8.80;99.90;;;;;;20479878;29;20031;-41
2024/03/30 22:54:11;;;;;;;48.70;7.10;;;8.50;99.90;;;;;;20480859;29;20035;-42
2024/03/30 23:04:13;;;;;;;52.78;7.55;;;8.50;99.90;;;;;;20497105;29;20039;-40
2024/03/30 23:14:15;;;;;;;45.35;6.40;;;8.50;99.90;;;;;;20435853;29;20040;-44
2024/03/30 23:24:18;;;;;;;57.63;6.65;;;8.20;99.90;;;;;;20464108;29;20055;-42
2024/03/30 23:34:20;;;;;;;66.15;7.97;;;7.80;99.90;;;;;;20432862;29;20391;-45
2024/03/30 23:44:21;;;;;;;41.72;6.03;;;7.50;99.90;;;;;;20510838;29;20090;-44
2024/03/30 23:54:23;;;;;;;47.53;6.15;;;7.40;99.90;;;;;;20480774;29;20397;-44
